createdAt,value
2019-06-07T00:01:05.518Z,26.00
2019-06-07T00:03:31.935Z,22.37
2019-06-07T00:05:58.057Z,19.50
2019-06-07T00:08:29.048Z,20.03
2019-06-07T00:10:53.529Z,19.33
2019-06-07T00:13:21.583Z,18.43
2019-06-07T00:15:47.703Z,20.77
2019-06-07T00:18:17.533Z,18.10
2019-06-07T00:20:41.856Z,18.77
2019-06-07T00:23:12.182Z,20.80
2019-06-07T00:25:37.524Z,21.60
2019-06-07T00:28:03.795Z,21.63
2019-06-07T00:30:41.086Z,23.33
2019-06-07T00:32:58.196Z,22.50
2019-06-07T00:35:24.450Z,21.17
2019-06-07T00:37:50.572Z,19.47
2019-06-07T00:40:27.109Z,18.60
2019-06-07T00:42:44.951Z,22.23
2019-06-07T00:45:17.912Z,27.50
2019-06-07T00:47:40.314Z,17.83
2019-06-07T00:50:08.772Z,21.03
2019-06-07T00:55:05.344Z,21.90
2019-06-07T00:57:31.559Z,21.73
2019-06-07T00:59:57.723Z,17.73
2019-06-07T01:02:31.262Z,17.73
2019-06-07T01:04:55.289Z,20.80
2019-06-07T01:07:21.986Z,25.03
2019-06-07T01:09:49.551Z,23.13
2019-06-07T01:12:19.419Z,25.67
2019-06-07T01:14:44.236Z,24.60
2019-06-07T01:17:27.736Z,28.97
2019-06-07T01:19:41.714Z,28.67
2019-06-07T01:22:07.937Z,29.33
2019-06-07T01:24:34.177Z,25.93
2019-06-07T01:27:00.305Z,24.77
2019-06-07T01:29:29.464Z,24.07
2019-06-07T01:31:54.704Z,24.23
2019-06-07T01:34:21.757Z,24.73
2019-06-07T01:36:48.970Z,19.97
2019-06-07T01:39:16.369Z,21.73
2019-06-07T01:41:42.576Z,23.57
2019-06-07T01:44:08.747Z,26.87
2019-06-07T01:46:34.981Z,25.23
2019-06-07T01:49:01.196Z,23.93
2019-06-07T01:51:30.479Z,24.63
2019-06-07T01:54:40.728Z,24.17
2019-06-07T01:56:26.517Z,23.83
2019-06-07T01:58:51.635Z,22.43
2019-06-07T02:01:19.663Z,22.63
2019-06-07T02:03:45.795Z,23.33
2019-06-07T02:06:12.021Z,24.07
2019-06-07T02:08:38.269Z,23.70
2019-06-07T02:11:04.513Z,20.67
2019-06-07T02:13:30.880Z,21.93
2019-06-07T02:15:57.164Z,22.37
2019-06-07T02:18:25.495Z,22.27
2019-06-07T02:20:51.348Z,21.70
2019-06-07T02:23:17.471Z,24.07
2019-06-07T02:25:50.202Z,24.13
2019-06-07T02:28:27.570Z,24.10
2019-06-07T02:30:53.342Z,22.80
2019-06-07T02:33:08.040Z,22.50
2019-06-07T02:35:40.470Z,22.57
2019-06-07T02:38:02.299Z,23.83
2019-06-07T02:40:36.040Z,25.00
2019-06-07T02:42:56.655Z,20.73
2019-06-07T02:45:24.808Z,22.30
2019-06-07T02:47:51.018Z,20.93
2019-06-07T02:50:17.755Z,22.97
2019-06-07T02:52:43.871Z,23.50
2019-06-07T02:55:12.010Z,24.87
2019-06-07T02:57:41.594Z,22.73
2019-06-07T03:00:40.820Z,24.37
2019-06-07T03:02:41.184Z,23.93
2019-06-07T03:05:05.985Z,25.07
2019-06-07T03:07:36.201Z,25.80
2019-06-07T03:10:02.066Z,26.40
2019-06-07T03:12:32.305Z,30.20
2019-06-07T03:14:59.618Z,27.47
2019-06-07T03:17:35.255Z,26.73
2019-06-07T03:20:03.201Z,24.90
2019-06-07T03:22:35.130Z,24.43
2019-06-07T03:25:02.901Z,24.37
2019-06-07T03:27:36.040Z,26.30
2019-06-07T03:29:57.268Z,26.30
2019-06-07T03:32:23.401Z,26.80
2019-06-07T03:34:49.633Z,25.50
2019-06-07T03:37:15.755Z,23.40
2019-06-07T03:39:41.893Z,23.67
2019-06-07T03:42:08.587Z,24.60
2019-06-07T03:44:37.874Z,24.03
2019-06-07T03:47:03.035Z,24.07
2019-06-07T03:49:31.519Z,26.23
2019-06-07T03:51:57.394Z,23.87
2019-06-07T03:54:23.618Z,23.27
2019-06-07T03:56:49.862Z,23.80
2019-06-07T03:59:16.087Z,22.87
2019-06-07T04:01:42.238Z,22.50
2019-06-07T04:04:08.471Z,21.73
2019-06-07T04:06:36.806Z,21.00
2019-06-07T04:09:04.868Z,20.77
2019-06-07T04:11:32.589Z,20.17
2019-06-07T04:13:58.862Z,21.00
2019-06-07T04:16:25.005Z,19.47
2019-06-07T04:18:51.149Z,20.33
2019-06-07T04:21:17.410Z,19.93
2019-06-07T04:23:45.774Z,18.37
2019-06-07T04:26:11.790Z,17.50
2019-06-07T04:29:30.501Z,18.03
2019-06-07T04:31:06.179Z,16.90
2019-06-07T04:33:34.970Z,16.93
2019-06-07T04:36:01.884Z,17.53
2019-06-07T04:38:32.712Z,19.03
2019-06-07T04:40:58.870Z,18.13
2019-06-07T04:43:29.863Z,17.13
2019-06-07T04:45:56.050Z,16.77
2019-06-07T04:48:24.896Z,17.33
2019-06-07T04:50:53.320Z,15.60
2019-06-07T04:53:19.473Z,15.40
2019-06-07T04:55:45.702Z,14.43
2019-06-07T04:58:11.931Z,13.77
2019-06-07T05:01:01.485Z,13.50
2019-06-07T05:03:06.545Z,12.70
2019-06-07T05:05:34.528Z,11.27
2019-06-07T05:08:07.154Z,12.15
2019-06-07T05:10:30.616Z,11.47
2019-06-07T05:12:57.648Z,11.35
2019-06-07T05:15:23.967Z,15.50
2019-06-07T05:17:50.322Z,10.00
2019-06-07T05:20:16.647Z,10.90
2019-06-07T05:22:45.238Z,11.57
2019-06-07T05:25:11.019Z,12.50
2019-06-07T05:27:39.326Z,9.28
2019-06-07T05:30:23.820Z,9.33
2019-06-07T05:32:36.781Z,10.55
2019-06-07T05:35:04.750Z,10.40
2019-06-07T05:37:33.058Z,11.88
2019-06-07T05:39:59.108Z,10.98
2019-06-07T05:42:25.341Z,10.35
2019-06-07T05:44:51.581Z,11.20
2019-06-07T05:47:17.808Z,10.30
2019-06-07T05:49:47.006Z,9.23
2019-06-07T05:52:12.216Z,10.65
2019-06-07T05:54:40.509Z,11.38
2019-06-07T05:57:06.581Z,12.98
2019-06-07T05:59:33.790Z,11.85
2019-06-07T06:02:09.476Z,11.43
2019-06-07T06:04:28.899Z,12.58
2019-06-07T06:06:55.146Z,11.68
2019-06-07T06:09:21.341Z,11.18
2019-06-07T06:11:59.529Z,10.68
2019-06-07T06:14:15.669Z,11.33
2019-06-07T06:16:44.481Z,10.72
2019-06-07T06:19:09.912Z,11.25
2019-06-07T06:21:36.252Z,9.10
2019-06-07T06:24:02.492Z,10.85
2019-06-07T06:26:28.628Z,9.35
2019-06-07T06:28:56.261Z,9.28
2019-06-07T06:31:22.546Z,10.10
2019-06-07T06:33:49.874Z,9.35
2019-06-07T06:36:16.461Z,9.08
2019-06-07T06:38:43.864Z,11.45
2019-06-07T06:41:15.808Z,9.10
2019-06-07T06:43:41.477Z,9.03
2019-06-07T06:46:06.964Z,10.45
2019-06-07T06:48:33.116Z,10.15
2019-06-07T06:50:59.261Z,10.58
2019-06-07T06:53:25.512Z,11.30
2019-06-07T06:55:51.749Z,10.82
2019-06-07T06:58:17.921Z,7.80
2019-06-07T07:00:59.753Z,8.58
2019-06-07T07:03:56.787Z,9.15
2019-06-07T07:05:48.673Z,8.53
2019-06-07T07:08:12.857Z,7.80
2019-06-07T07:10:45.901Z,7.70
2019-06-07T07:13:13.080Z,7.90
2019-06-07T07:15:39.507Z,6.50
2019-06-07T07:18:08.908Z,7.15
2019-06-07T07:20:39.194Z,9.63
2019-06-07T07:23:05.568Z,8.55
2019-06-07T07:25:31.801Z,10.03
2019-06-07T07:27:58.186Z,11.57
2019-06-07T07:30:47.388Z,9.95
2019-06-07T07:33:14.800Z,6.90
2019-06-07T07:36:03.244Z,8.13
2019-06-07T07:38:09.173Z,6.70
2019-06-07T07:40:57.087Z,9.23
2019-06-07T07:43:05.038Z,8.70
2019-06-07T07:45:31.304Z,9.78
2019-06-07T07:48:13.764Z,7.30
2019-06-07T07:50:25.698Z,5.65
2019-06-07T07:52:56.002Z,10.78
2019-06-07T07:55:20.010Z,5.12
2019-06-07T07:57:48.672Z,7.92
2019-06-07T08:00:49.575Z,6.35
2019-06-07T08:02:43.220Z,6.47
2019-06-07T08:05:22.658Z,6.83
2019-06-07T08:07:38.622Z,5.67
2019-06-07T08:10:05.771Z,6.50
2019-06-07T08:12:52.877Z,7.17
2019-06-07T08:15:03.432Z,6.22
2019-06-07T08:17:28.200Z,5.28
2019-06-07T08:19:57.332Z,5.10
2019-06-07T08:22:22.598Z,7.12
2019-06-07T08:24:50.463Z,7.22
2019-06-07T08:27:25.862Z,6.78
2019-06-07T08:30:00.875Z,5.95
2019-06-07T08:32:13.405Z,9.88
2019-06-07T08:34:39.569Z,10.03
2019-06-07T08:37:05.825Z,5.53
2019-06-07T08:39:32.095Z,5.30
2019-06-07T08:42:12.765Z,9.28
2019-06-07T08:44:26.521Z,8.93
2019-06-07T08:47:11.623Z,8.18
2019-06-07T08:49:20.997Z,6.53
2019-06-07T08:51:47.263Z,7.50
2019-06-07T08:54:22.198Z,5.97
2019-06-07T08:56:41.645Z,9.73
2019-06-07T08:59:11.403Z,5.78
2019-06-07T09:01:36.055Z,7.15
2019-06-07T09:04:07.660Z,9.03
2019-06-07T09:09:01.578Z,6.78
2019-06-07T09:11:26.794Z,6.80
2019-06-07T09:13:54.510Z,8.30
2019-06-07T09:16:21.197Z,6.40
2019-06-07T09:18:47.428Z,9.30
2019-06-07T09:21:13.573Z,6.20
2019-06-07T09:23:39.838Z,6.40
2019-06-07T09:26:15.986Z,5.92
2019-06-07T09:28:34.128Z,6.20
2019-06-07T09:31:06.902Z,10.53
2019-06-07T09:33:28.562Z,5.92
2019-06-07T09:35:56.166Z,6.97
2019-06-07T09:38:26.184Z,6.42
2019-06-07T09:40:51.221Z,6.60
2019-06-07T09:45:45.528Z,6.25
2019-06-07T09:48:34.439Z,7.62
2019-06-07T09:50:43.853Z,7.47
2019-06-07T09:53:21.999Z,10.32
2019-06-07T09:55:38.338Z,6.50
2019-06-07T09:58:44.862Z,5.97
2019-06-07T10:00:40.571Z,7.85
2019-06-07T10:03:13.852Z,5.85
2019-06-07T10:05:29.147Z,6.75
2019-06-07T10:08:07.589Z,7.12
2019-06-07T10:12:51.704Z,6.85
2019-06-07T10:15:17.971Z,8.10
2019-06-07T10:17:44.095Z,7.03
2019-06-07T10:20:10.554Z,6.45
2019-06-07T10:22:36.835Z,7.65
2019-06-07T10:25:04.446Z,7.28
2019-06-07T10:27:31.098Z,7.15
2019-06-07T10:29:57.348Z,7.33
2019-06-07T10:32:23.712Z,8.25
2019-06-07T10:34:50.006Z,7.85
2019-06-07T10:37:16.267Z,7.17
2019-06-07T10:39:48.533Z,6.53
2019-06-07T10:42:11.609Z,8.58
2019-06-07T10:44:38.062Z,10.35
2019-06-07T10:47:05.922Z,6.78
2019-06-07T10:49:32.269Z,8.33
2019-06-07T10:51:58.511Z,7.28
2019-06-07T10:54:30.337Z,5.95
2019-06-07T10:56:52.900Z,6.47
2019-06-07T10:59:19.157Z,6.72
2019-06-07T11:01:45.414Z,5.95
2019-06-07T11:04:11.817Z,7.03
2019-06-07T11:06:39.782Z,7.35
2019-06-07T11:09:07.899Z,9.35
2019-06-07T11:11:34.313Z,9.20
2019-06-07T11:14:00.572Z,7.75
2019-06-07T11:16:26.908Z,6.72
2019-06-07T11:18:53.053Z,7.90
2019-06-07T11:21:19.301Z,6.85
2019-06-07T11:23:46.525Z,6.60
2019-06-07T11:26:12.774Z,6.78
2019-06-07T11:28:39.013Z,5.65
2019-06-07T11:31:06.350Z,7.47
2019-06-07T11:33:32.719Z,7.37
2019-06-07T11:35:58.964Z,5.65
2019-06-07T11:38:25.196Z,7.20
2019-06-07T11:40:51.455Z,6.85
2019-06-07T11:43:18.833Z,5.10
2019-06-07T11:45:45.431Z,9.10
2019-06-07T11:48:11.655Z,4.33
2019-06-07T11:50:37.916Z,5.62
2019-06-07T11:53:04.177Z,6.12
2019-06-07T11:55:30.320Z,7.58
2019-06-07T11:57:56.557Z,5.85
2019-06-07T12:00:23.709Z,6.08
2019-06-07T12:02:50.022Z,7.58
2019-06-07T12:05:19.809Z,5.47
2019-06-07T12:07:44.812Z,8.23
2019-06-07T12:10:12.569Z,6.42
2019-06-07T12:12:38.946Z,6.83
2019-06-07T12:15:06.097Z,5.60
2019-06-07T12:17:32.254Z,9.35
2019-06-07T12:19:58.394Z,6.47
2019-06-07T12:22:24.552Z,11.65
2019-06-07T12:24:50.815Z,9.08
2019-06-07T12:27:17.159Z,10.15
2019-06-07T12:29:43.425Z,8.73
2019-06-07T12:32:11.133Z,6.33
2019-06-07T12:34:37.496Z,7.05
2019-06-07T12:37:03.732Z,6.12
2019-06-07T12:39:29.986Z,6.92
2019-06-07T12:41:56.218Z,9.78
2019-06-07T12:44:22.840Z,6.03
2019-06-07T12:46:49.320Z,8.28
2019-06-07T12:49:15.575Z,6.67
2019-06-07T12:51:42.693Z,5.67
2019-06-07T12:54:08.824Z,5.62
2019-06-07T12:56:36.113Z,6.25
2019-06-07T12:59:02.588Z,7.58
2019-06-07T13:01:28.735Z,6.03
2019-06-07T13:03:54.986Z,6.35
2019-06-07T13:06:21.684Z,7.17
2019-06-07T13:08:49.066Z,9.68
2019-06-07T13:11:21.634Z,6.03
2019-06-07T13:13:43.584Z,5.80
2019-06-07T13:16:09.982Z,5.90
2019-06-07T13:18:36.201Z,6.10
2019-06-07T13:21:02.441Z,6.00
2019-06-07T13:23:29.119Z,6.42
2019-06-07T13:25:55.451Z,6.83
2019-06-07T13:28:22.682Z,7.37
2019-06-07T13:30:49.046Z,9.25
2019-06-07T13:33:16.795Z,7.30
2019-06-07T13:35:43.828Z,9.45
2019-06-07T13:38:11.889Z,8.33
2019-06-07T13:40:38.019Z,12.25
2019-06-07T13:43:04.279Z,6.67
2019-06-07T13:45:30.518Z,8.05
2019-06-07T13:47:56.881Z,7.20
2019-06-07T13:50:24.136Z,7.62
2019-06-07T13:52:50.357Z,7.00
2019-06-07T13:55:17.878Z,6.28
2019-06-07T13:57:44.247Z,8.20
2019-06-07T14:00:11.804Z,6.60
2019-06-07T14:02:38.244Z,6.87
2019-06-07T14:05:06.283Z,9.55
2019-06-07T14:07:32.437Z,6.83
2019-06-07T14:09:58.576Z,6.85
2019-06-07T14:12:26.202Z,9.43
2019-06-07T14:14:52.644Z,8.70
2019-06-07T14:17:18.779Z,6.25
2019-06-07T14:19:45.034Z,6.97
2019-06-07T14:22:11.266Z,7.15
2019-06-07T14:24:37.507Z,12.28
2019-06-07T14:27:06.631Z,12.78
2019-06-07T14:29:34.586Z,7.83
2019-06-07T14:32:00.831Z,13.45
2019-06-07T14:34:28.600Z,8.63
2019-06-07T14:36:55.047Z,9.33
2019-06-07T14:39:21.191Z,8.90
2019-06-07T14:41:47.325Z,8.03
2019-06-07T14:44:13.446Z,9.55
2019-06-07T14:46:39.710Z,7.00
2019-06-07T14:49:05.848Z,9.48
2019-06-07T14:51:33.495Z,5.95
2019-06-07T14:54:00.257Z,6.92
2019-06-07T14:56:27.059Z,10.13
2019-06-07T14:58:53.332Z,6.50
2019-06-07T15:01:19.574Z,8.18
2019-06-07T15:03:45.701Z,6.37
2019-06-07T15:06:11.970Z,6.80
2019-06-07T15:08:39.150Z,7.40
2019-06-07T15:11:05.566Z,7.20
2019-06-07T15:13:33.451Z,8.55
2019-06-07T15:15:59.920Z,6.40
2019-06-07T15:18:27.492Z,7.10
2019-06-07T15:20:53.921Z,6.97
2019-06-07T15:23:20.179Z,8.98
2019-06-07T15:25:46.330Z,8.48
2019-06-07T15:28:12.542Z,7.42
2019-06-07T15:30:38.795Z,8.25
2019-06-07T15:33:05.046Z,11.57
2019-06-07T15:35:32.140Z,6.72
2019-06-07T15:37:58.612Z,6.55
2019-06-07T15:40:24.842Z,9.08
2019-06-07T15:42:53.228Z,8.48
2019-06-07T15:45:19.316Z,9.60
2019-06-07T15:47:45.607Z,7.83
2019-06-07T15:50:13.144Z,6.67
2019-06-07T15:52:41.267Z,8.58
2019-06-07T15:55:09.231Z,10.70
2019-06-07T15:57:35.355Z,8.38
2019-06-07T16:00:03.855Z,8.55
2019-06-07T16:02:31.365Z,11.75
2019-06-07T16:04:57.767Z,9.75
2019-06-07T16:07:23.896Z,9.13
2019-06-07T16:09:50.128Z,9.33
2019-06-07T16:12:16.281Z,10.10
2019-06-07T16:14:43.530Z,8.85
2019-06-07T16:17:09.996Z,10.95
2019-06-07T16:19:41.056Z,9.90
2019-06-07T16:22:04.398Z,8.18
2019-06-07T16:24:30.617Z,10.85
2019-06-07T16:26:56.766Z,8.08
2019-06-07T16:29:22.921Z,9.73
2019-06-07T16:31:49.085Z,9.10
2019-06-07T16:34:15.216Z,10.18
2019-06-07T16:36:42.278Z,11.30
2019-06-07T16:39:08.768Z,10.10
2019-06-07T16:41:36.439Z,8.70
2019-06-07T16:44:02.993Z,10.13
2019-06-07T16:46:29.262Z,10.35
2019-06-07T16:48:55.387Z,8.23
2019-06-07T16:51:21.623Z,8.40
2019-06-07T16:53:48.612Z,8.38
2019-06-07T16:56:15.005Z,11.10
2019-06-07T16:58:42.292Z,9.17
2019-06-07T17:01:08.676Z,9.90
2019-06-07T17:03:34.934Z,9.03
2019-06-07T17:06:01.178Z,9.13
2019-06-07T17:08:27.432Z,10.13
2019-06-07T17:10:53.680Z,8.60
2019-06-07T17:13:32.354Z,8.07
2019-06-07T17:15:48.970Z,10.10
2019-06-07T17:18:17.093Z,7.50
2019-06-07T17:20:43.295Z,8.10
2019-06-07T17:23:09.469Z,7.37
2019-06-07T17:25:35.606Z,7.17
2019-06-07T17:28:01.875Z,7.57
2019-06-07T17:30:28.127Z,8.97
2019-06-07T17:32:59.160Z,7.80
2019-06-07T17:35:22.418Z,7.53
2019-06-07T17:37:49.637Z,8.13
2019-06-07T17:40:17.125Z,8.13
2019-06-07T17:42:43.363Z,9.93
2019-06-07T17:45:10.990Z,9.43
2019-06-07T17:47:37.337Z,9.30
2019-06-07T17:50:05.611Z,8.03
2019-06-07T17:52:31.848Z,9.23
2019-06-07T17:54:58.093Z,10.53
2019-06-07T17:57:24.322Z,10.20
2019-06-07T17:59:50.679Z,9.27
2019-06-07T18:02:16.898Z,7.90
2019-06-07T18:04:43.228Z,8.43
2019-06-07T18:07:10.169Z,9.10
2019-06-07T18:09:37.826Z,9.43
2019-06-07T18:12:04.156Z,9.97
2019-06-07T18:14:30.401Z,9.83
2019-06-07T18:16:56.753Z,9.73
2019-06-07T18:19:22.984Z,9.13
2019-06-07T18:21:50.076Z,9.30
2019-06-07T18:24:17.393Z,9.67
2019-06-07T18:26:43.626Z,9.87
2019-06-07T18:29:09.870Z,11.37
2019-06-07T18:31:36.119Z,9.63
2019-06-07T18:34:02.354Z,9.83
2019-06-07T18:36:28.575Z,9.77
2019-06-07T18:38:55.116Z,10.97
2019-06-07T18:41:21.462Z,11.37
2019-06-07T18:43:49.082Z,10.87
2019-06-07T18:46:15.525Z,12.97
2019-06-07T18:48:41.745Z,13.00
2019-06-07T18:51:07.998Z,10.37
2019-06-07T18:53:34.145Z,10.20
2019-06-07T18:56:00.287Z,9.20
2019-06-07T18:58:26.511Z,11.73
2019-06-07T19:00:53.793Z,13.23
2019-06-07T19:03:20.215Z,12.97
2019-06-07T19:05:46.447Z,15.00
2019-06-07T19:08:12.706Z,15.90
2019-06-07T19:10:39.028Z,11.00
2019-06-07T19:13:05.260Z,9.70
2019-06-07T19:15:31.395Z,10.73
2019-06-07T19:17:58.118Z,9.50
2019-06-07T19:20:24.980Z,12.93
2019-06-07T19:22:52.066Z,12.07
2019-06-07T19:25:18.329Z,11.30
2019-06-07T19:27:45.192Z,9.13
2019-06-07T19:30:12.013Z,9.17
2019-06-07T19:32:38.281Z,10.63
2019-06-07T19:35:06.911Z,9.20
2019-06-07T19:37:33.158Z,8.43
2019-06-07T19:40:00.109Z,10.67
2019-06-07T19:42:26.522Z,13.50
2019-06-07T19:45:00.052Z,9.57
2019-06-07T19:47:20.895Z,9.40
2019-06-07T19:49:47.128Z,12.27
2019-06-07T19:52:13.380Z,9.93
2019-06-07T19:54:39.654Z,11.93
2019-06-07T19:57:05.807Z,10.13
2019-06-07T19:59:32.037Z,9.60
2019-06-07T20:01:58.155Z,12.40
2019-06-07T20:04:24.388Z,11.00
2019-06-07T20:06:50.550Z,12.33
2019-06-07T20:09:16.789Z,12.00
2019-06-07T20:11:42.936Z,11.77
2019-06-07T20:14:09.175Z,9.77
2019-06-07T20:16:35.488Z,10.23
2019-06-07T20:19:03.529Z,12.40
2019-06-07T20:21:29.731Z,13.83
2019-06-07T20:23:56.779Z,11.10
2019-06-07T20:26:22.989Z,10.97
2019-06-07T20:28:49.226Z,12.40
2019-06-07T20:31:15.451Z,10.27
2019-06-07T20:33:41.699Z,15.30
2019-06-07T20:36:09.074Z,11.50
2019-06-07T20:38:35.292Z,12.07
2019-06-07T20:41:01.520Z,13.33
2019-06-07T20:43:27.758Z,11.03
2019-06-07T20:45:53.995Z,10.27
2019-06-07T20:48:20.148Z,10.13
2019-06-07T20:50:46.280Z,10.70
2019-06-07T20:53:12.535Z,10.93
2019-06-07T20:55:38.764Z,16.10
2019-06-07T20:58:05.529Z,11.60
2019-06-07T21:00:31.943Z,14.03
2019-06-07T21:02:59.008Z,13.20
2019-06-07T21:05:25.413Z,13.10
2019-06-07T21:07:51.544Z,11.53
2019-06-07T21:10:17.702Z,11.90
2019-06-07T21:12:43.913Z,11.20
2019-06-07T21:15:14.136Z,11.83
2019-06-07T21:17:38.550Z,12.37
2019-06-07T21:20:09.317Z,12.10
2019-06-07T21:22:34.325Z,10.10
2019-06-07T21:25:00.752Z,13.17
2019-06-07T21:27:27.081Z,12.43
2019-06-07T21:30:00.927Z,12.93
2019-06-07T21:32:27.363Z,12.27
2019-06-07T21:34:53.514Z,12.43
2019-06-07T21:37:19.741Z,11.40
2019-06-07T21:39:49.962Z,11.93
2019-06-07T21:42:15.961Z,10.80
2019-06-07T21:44:42.192Z,11.87
2019-06-07T21:47:08.558Z,12.60
2019-06-07T21:49:34.765Z,14.30
2019-06-07T21:52:02.372Z,11.23
2019-06-07T21:54:28.776Z,14.87
2019-06-07T21:56:54.933Z,12.03
2019-06-07T21:59:21.181Z,12.83
2019-06-07T22:01:47.413Z,11.20
2019-06-07T22:04:13.822Z,13.37
2019-06-07T22:06:43.060Z,11.00
2019-06-07T22:09:09.970Z,11.87
2019-06-07T22:11:36.445Z,12.07
2019-06-07T22:14:04.165Z,13.33
2019-06-07T22:16:30.554Z,13.23
2019-06-07T22:19:01.001Z,16.93
2019-06-07T22:21:29.024Z,13.53
2019-06-07T22:23:56.609Z,13.10
2019-06-07T22:26:24.872Z,14.57
2019-06-07T22:28:51.189Z,14.27
2019-06-07T22:31:17.420Z,14.40
2019-06-07T22:33:44.166Z,12.83
2019-06-07T22:36:11.047Z,13.30
2019-06-07T22:38:37.369Z,13.17
2019-06-07T22:41:03.613Z,16.23
2019-06-07T22:43:29.835Z,19.87
2019-06-07T22:45:55.977Z,15.30
2019-06-07T22:48:22.206Z,15.10
2019-06-07T22:50:48.434Z,13.20
2019-06-07T22:53:15.559Z,15.67
2019-06-07T22:55:43.595Z,18.27
2019-06-07T22:58:10.048Z,17.00
2019-06-07T23:00:38.207Z,15.53
2019-06-07T23:03:04.424Z,15.03
2019-06-07T23:05:30.546Z,14.57
2019-06-07T23:07:56.702Z,17.20
2019-06-07T23:10:22.825Z,18.00
2019-06-07T23:12:48.957Z,16.17
2019-06-07T23:15:15.508Z,17.33
2019-06-07T23:17:41.617Z,19.20
2019-06-07T23:20:09.651Z,16.57
2019-06-07T23:22:35.970Z,18.50
2019-06-07T23:25:03.589Z,19.80
2019-06-07T23:27:29.731Z,18.63
2019-06-07T23:29:55.848Z,18.70
2019-06-07T23:32:22.084Z,16.87
2019-06-07T23:34:48.230Z,17.43
2019-06-07T23:37:15.017Z,15.33
2019-06-07T23:39:41.232Z,15.70
2019-06-07T23:42:07.451Z,16.20
2019-06-07T23:44:33.679Z,17.00
2019-06-07T23:47:10.697Z,17.20
2019-06-07T23:49:27.840Z,16.73
2019-06-07T23:51:54.079Z,18.07
2019-06-07T23:54:20.238Z,23.17
2019-06-07T23:56:46.467Z,21.37
2019-06-07T23:59:14.126Z,21.33
